Martha Mills, Kentucky
Current Conditions -  °F | °C
As of 11:15 AM on Wednesday 26 Nov 2014 (Local Time) from KFGX Reporting Station
Clear Clear  
Wind Chill: 31°   Ceiling: Unl
Heat Index: 35°   Visibility: 10mi
Dew Point: 28°   Wind: 5mph
Humidity: 76%   Direction: 30°NNE
Pressure: 30.11"   Gusts: NA
Location:  38.436°N, 83.6931°W
Report Text: KFGX 261615Z AUTO 03004KT 10SM CLR 02/M02 A3011 RMK AO2 T00191020
Loading
Personal Weather Stations






























Interactive Weather Map New forecast layout! Learn more

10-Day Weather Forecast

Advertisements
Track Severe Weather on mobile